Time;durP1;ratioP1;P1;durP2;ratioP2;P2;SDS_P1;SDS_P2;PMS_P1;PMS_P2;Temp;Humidity;BMP_temperature;BMP_pressure;BME280_temperature;BME280_humidity;BME280_pressure;Samples;Min_cycle;Max_cycle;Signal;HPM_P1;HPM_P2
2022/06/20 00:00:40;;;;;;;6.85;5.47;;;;;;;22.53;45.36;95393.91;5068815;28;20036;-66
2022/06/20 00:03:09;;;;;;;10.68;5.50;;;;;;;22.53;45.52;95388.56;5073147;28;20056;-66
2022/06/20 00:05:36;;;;;;;12.75;5.00;;;;;;;22.43;46.60;95394.41;5055203;28;20510;-66
2022/06/20 00:08:03;;;;;;;18.88;6.07;;;;;;;22.32;47.09;95405.88;5073080;28;20860;-66
2022/06/20 00:10:30;;;;;;;11.25;6.35;;;;;;;22.22;47.20;95395.69;5072940;28;20437;-66
2022/06/20 00:12:56;;;;;;;16.73;6.22;;;;;;;22.12;47.81;95390.00;5073088;28;20056;-66
2022/06/20 00:15:32;;;;;;;11.32;5.88;;;;;;;21.99;47.93;95397.13;5072516;28;20036;-66
2022/06/20 00:17:59;;;;;;;11.38;5.65;;;;;;;21.92;48.38;95406.31;5072850;28;20028;-66
2022/06/20 00:20:26;;;;;;;16.63;5.72;;;;;;;21.92;48.94;95411.66;5072611;28;20491;-66
2022/06/20 00:22:52;;;;;;;14.60;6.32;;;;;;;21.88;49.25;95413.94;5072583;28;20503;-66
2022/06/20 00:25:19;;;;;;;11.63;6.10;;;;;;;21.94;49.00;95413.06;5072221;28;20017;-66
2022/06/20 00:27:45;;;;;;;7.97;5.13;;;;;;;21.95;49.63;95414.69;5072802;28;20025;-66
2022/06/20 00:30:12;;;;;;;8.02;5.65;;;;;;;21.87;49.50;95417.66;5072863;28;20028;-66
2022/06/20 00:32:38;;;;;;;13.55;5.68;;;;;;;21.80;49.28;95420.41;5072599;28;20412;-66
2022/06/20 00:35:03;;;;;;;10.65;6.25;;;;;;;21.65;50.43;95412.69;5072492;28;20029;-66
2022/06/20 00:37:29;;;;;;;12.15;5.75;;;;;;;21.58;50.66;95414.59;5072387;28;20467;-66
2022/06/20 00:39:54;;;;;;;8.48;6.07;;;;;;;21.55;51.21;95415.84;5072428;28;20595;-66
2022/06/20 00:42:20;;;;;;;9.60;5.65;;;;;;;21.49;51.05;95408.69;5072464;28;20025;-66
2022/06/20 00:44:50;;;;;;;12.10;6.22;;;;;;;21.41;51.29;95409.75;5072332;28;20492;-66
2022/06/20 00:47:19;;;;;;;13.15;6.63;;;;;;;21.40;51.23;95415.31;5072733;28;20385;-66
2022/06/20 00:49:58;;;;;;;14.90;5.65;;;;;;;21.35;51.63;95416.00;5071930;28;20383;-66
2022/06/20 00:52:44;;;;;;;10.63;5.10;;;;;;;21.25;51.20;95421.00;5064411;28;20036;-66
2022/06/20 00:55:29;;;;;;;10.23;5.28;;;;;;;21.23;51.77;95415.88;5059173;28;20020;-66
2022/06/20 00:58:04;;;;;;;14.07;5.88;;;;;;;21.16;52.55;95413.22;5072202;28;20033;-66
2022/06/20 01:00:36;;;;;;;10.40;6.03;;;;;;;21.11;52.44;95418.41;5072077;28;20029;-66
2022/06/20 01:03:20;;;;;;;12.27;5.68;;;;;;;21.01;53.37;95415.38;5070914;28;20036;-66
2022/06/20 01:06:05;;;;;;;12.55;5.10;;;;;;;20.92;52.44;95411.31;5072484;28;20099;-66
2022/06/20 01:08:38;;;;;;;9.40;5.65;;;;;;;20.87;52.34;95412.75;5071876;28;20769;-66
2022/06/20 01:11:16;;;;;;;17.70;6.03;;;;;;;20.88;52.97;95417.06;5071890;28;20028;-66
2022/06/20 01:13:42;;;;;;;10.77;5.45;;;;;;;20.87;53.31;95412.75;5071344;28;20532;-66
2022/06/20 01:16:14;;;;;;;13.48;5.35;;;;;;;20.84;52.58;95410.50;5071793;28;20249;-66
2022/06/20 01:18:43;;;;;;;17.05;6.25;;;;;;;20.83;53.55;95414.22;5071632;28;20039;-66
2022/06/20 01:21:21;;;;;;;12.10;5.43;;;;;;;20.83;53.60;95413.41;5071766;28;20033;-66
2022/06/20 01:24:05;;;;;;;11.57;6.05;;;;;;;20.74;53.79;95405.59;5071950;28;20063;-66
2022/06/20 01:26:36;;;;;;;12.20;6.32;;;;;;;20.74;53.60;95410.13;5071615;28;20024;-66
2022/06/20 01:29:04;;;;;;;20.35;6.25;;;;;;;20.75;52.98;95401.06;5071514;28;20384;-66
2022/06/20 01:31:31;;;;;;;14.02;5.47;;;;;;;20.73;53.16;95405.81;5071521;28;20031;-66
2022/06/20 01:34:00;;;;;;;13.35;5.97;;;;;;;20.69;52.83;95401.94;5071398;28;20025;-66
2022/06/20 01:39:14;;;;;;;11.82;5.70;;;;;;;20.46;54.93;95408.59;5069810;28;20060;-66
2022/06/20 01:44:25;;;;;;;14.45;5.50;;;;;;;20.21;55.53;95408.47;5071489;28;20031;-66
2022/06/20 01:46:50;;;;;;;14.30;5.93;;;;;;;20.21;55.52;95411.94;5071702;28;20031;-66
2022/06/20 01:49:21;;;;;;;16.65;5.50;;;;;;;20.30;54.73;95420.56;5071383;28;20386;-66
2022/06/20 01:51:57;;;;;;;7.05;5.03;;;;;;;20.25;54.42;95421.22;5071639;28;20025;-66
2022/06/20 01:54:26;;;;;;;11.77;5.75;;;;;;;20.20;53.88;95414.84;5070918;28;20752;-66
2022/06/20 01:56:52;;;;;;;9.45;5.60;;;;;;;20.14;54.78;95416.50;5071419;28;20104;-66
2022/06/20 01:59:37;;;;;;;6.93;4.82;;;;;;;20.25;53.94;95421.22;5071124;28;20086;-66
2022/06/20 02:02:03;;;;;;;7.30;5.13;;;;;;;20.26;53.73;95424.69;5058067;28;20545;-66
2022/06/20 02:04:33;;;;;;;14.63;6.30;;;;;;;20.25;53.70;95423.03;5070866;28;20029;-66
2022/06/20 02:07:01;;;;;;;14.73;5.65;;;;;;;20.20;54.12;95436.22;5057127;28;20115;-66
2022/06/20 02:09:27;;;;;;;9.70;5.97;;;;;;;20.08;54.52;95444.06;5070831;28;20024;-66
2022/06/20 02:11:52;;;;;;;12.90;5.18;;;;;;;20.04;54.76;95430.28;5070930;28;20013;-66
2022/06/20 02:14:25;;;;;;;11.00;5.72;;;;;;;20.02;55.45;95430.50;5070631;28;20028;-66
2022/06/20 02:16:58;;;;;;;13.30;5.90;;;;;;;19.99;54.68;95428.22;5070671;28;20075;-66
2022/06/20 02:19:31;;;;;;;12.88;5.68;;;;;;;20.01;54.99;95430.69;5070475;28;20117;-66
2022/06/20 02:22:02;;;;;;;10.20;5.70;;;;;;;19.98;55.58;95436.47;5070541;28;20044;-66
2022/06/20 02:24:38;;;;;;;11.18;5.45;;;;;;;19.98;55.55;95428.44;5070469;28;20013;-66
2022/06/20 02:27:10;;;;;;;15.02;6.20;;;;;;;19.95;54.90;95428.88;5069821;28;20017;-66
2022/06/20 02:29:36;;;;;;;15.52;5.70;;;;;;;19.93;54.64;95430.94;5070402;28;20039;-66
2022/06/20 02:32:11;;;;;;;12.93;5.75;;;;;;;19.87;55.24;95432.53;5070362;28;20016;-66
2022/06/20 02:34:36;;;;;;;13.88;5.35;;;;;;;19.82;55.42;95427.00;5070168;28;20021;-66
2022/06/20 02:37:07;;;;;;;11.27;5.35;;;;;;;19.73;55.48;95421.84;5070284;28;20021;-66
2022/06/20 02:39:36;;;;;;;7.43;5.45;;;;;;;19.76;55.23;95423.31;5069950;28;20040;-66
2022/06/20 02:42:05;;;;;;;15.45;6.15;;;;;;;19.78;55.50;95423.91;5070232;28;20403;-66
2022/06/20 02:44:31;;;;;;;12.93;5.82;;;;;;;19.82;56.51;95424.34;5070081;28;20020;-66
2022/06/20 02:46:57;;;;;;;7.75;5.35;;;;;;;19.78;56.03;95420.41;5070154;28;20132;-66
2022/06/20 02:49:27;;;;;;;13.82;5.00;;;;;;;19.74;55.88;95417.34;5070186;28;20028;-66
2022/06/20 02:51:54;;;;;;;12.73;6.35;;;;;;;19.75;55.23;95422.47;5070028;28;20024;-66
2022/06/20 02:54:24;;;;;;;8.65;5.63;;;;;;;19.78;54.95;95423.06;5069875;28;20021;-66
2022/06/20 02:57:01;;;;;;;10.55;4.95;;;;;;;19.76;54.78;95418.75;5056643;28;20021;-66
2022/06/20 02:59:32;;;;;;;19.88;5.65;;;;;;;19.68;55.22;95421.66;5069840;28;20460;-66
2022/06/20 03:02:11;;;;;;;10.30;5.57;;;;;;;19.61;56.84;95423.50;5070066;28;20059;-66
2022/06/20 03:04:40;;;;;;;18.80;6.35;;;;;;;19.48;56.59;95419.00;5069764;28;20028;-66
2022/06/20 03:07:20;;;;;;;10.73;6.30;;;;;;;19.31;57.50;95410.53;5069941;28;20070;-66
2022/06/20 03:09:49;;;;;;;15.75;6.55;;;;;;;19.31;56.95;95413.22;5069726;28;20032;-66
2022/06/20 03:12:15;;;;;;;13.30;6.60;;;;;;;19.26;57.32;95405.00;5069746;28;20109;-66
2022/06/20 03:14:45;;;;;;;15.40;5.60;;;;;;;19.22;57.66;95404.56;5069769;28;20028;-66
2022/06/20 03:17:14;;;;;;;14.38;5.95;;;;;;;19.12;57.87;95401.50;5055489;28;20047;-66
2022/06/20 03:19:42;;;;;;;12.07;6.18;;;;;;;19.03;58.28;95401.69;5069543;28;20438;-66
2022/06/20 03:22:11;;;;;;;18.08;6.72;;;;;;;19.12;57.99;95405.00;5069557;28;20028;-66
2022/06/20 03:24:37;;;;;;;12.07;5.93;;;;;;;19.14;58.20;95410.97;5069699;28;20016;-66
2022/06/20 03:27:06;;;;;;;13.38;6.78;;;;;;;19.08;58.23;95409.06;5072966;28;20025;-67
2022/06/20 03:29:35;;;;;;;16.05;6.70;;;;;;;19.08;58.32;95416.28;5076325;28;20087;-66
2022/06/20 03:32:00;;;;;;;11.88;6.32;;;;;;;19.10;58.03;95420.38;5076193;28;20517;-66
2022/06/20 03:34:26;;;;;;;9.20;5.55;;;;;;;19.19;58.01;95421.00;5076362;28;20040;-66
2022/06/20 03:36:51;;;;;;;12.32;6.25;;;;;;;19.04;59.22;95415.84;5076401;28;20017;-66
2022/06/20 03:39:21;;;;;;;15.98;6.95;;;;;;;19.03;58.90;95416.88;5076013;28;20023;-66
2022/06/20 03:41:49;;;;;;;11.30;5.47;;;;;;;18.91;59.85;95413.94;5076134;28;20139;-66
2022/06/20 03:44:19;;;;;;;11.57;6.03;;;;;;;18.90;59.86;95412.28;5075828;28;20435;-66
2022/06/20 03:46:57;;;;;;;7.90;5.20;;;;;;;18.78;60.12;95412.06;5076285;28;20020;-66
2022/06/20 03:49:28;;;;;;;8.45;5.93;;;;;;;18.84;60.09;95415.78;5076073;28;20024;-66
2022/06/20 03:52:00;;;;;;;12.68;6.38;;;;;;;18.81;60.37;95419.66;5076108;28;20028;-66
2022/06/20 03:54:37;;;;;;;13.85;5.97;;;;;;;18.71;60.35;95416.56;5076046;28;20016;-66
2022/06/20 03:57:10;;;;;;;12.98;5.72;;;;;;;18.65;59.99;95410.16;5076130;28;20510;-66
2022/06/20 03:59:47;;;;;;;10.40;5.88;;;;;;;18.75;60.07;95423.13;5075842;28;20028;-66
2022/06/20 04:02:21;;;;;;;13.98;6.30;;;;;;;18.75;60.49;95425.78;5075862;28;20029;-66
2022/06/20 04:05:24;;;;;;;13.35;6.40;;;;;;;18.69;60.96;95424.75;5076003;28;20379;-65
2022/06/20 04:08:00;;;;;;;13.77;6.30;;;;;;;18.67;59.96;95433.94;5075608;28;20051;-66
2022/06/20 04:13:33;;;;;;;10.68;5.88;;;;;;;18.73;60.18;95425.97;5075975;28;20202;-66
2022/06/20 04:16:07;;;;;;;11.00;6.38;;;;;;;18.71;60.54;95429.88;5072984;28;20056;-66
2022/06/20 04:18:38;;;;;;;12.20;6.53;;;;;;;18.61;61.65;95436.41;5070814;28;20016;-66
2022/06/20 04:21:25;;;;;;;10.90;6.15;;;;;;;18.67;60.56;95439.28;5075365;28;20403;-66
2022/06/20 04:24:13;;;;;;;12.40;6.45;;;;;;;18.73;60.81;95452.66;5074568;28;20024;-66
2022/06/20 04:26:47;;;;;;;8.32;5.90;;;;;;;18.70;60.35;95446.91;5075553;28;20399;-66
2022/06/20 04:29:19;;;;;;;13.68;6.45;;;;;;;18.77;60.54;95442.41;5075662;28;20550;-66
2022/06/20 04:31:59;;;;;;;9.02;5.82;;;;;;;18.92;59.76;95446.78;5075225;28;20033;-66
2022/06/20 04:34:47;;;;;;;18.38;6.50;;;;;;;18.91;60.03;95445.94;5075091;28;20035;-66
2022/06/20 04:37:28;;;;;;;13.85;6.60;;;;;;;18.85;59.60;95455.56;5075754;28;20043;-66
2022/06/20 04:40:02;;;;;;;17.17;6.43;;;;;;;18.86;59.49;95459.06;5072208;28;20579;-66
2022/06/20 04:42:38;;;;;;;12.77;6.78;;;;;;;18.89;60.23;95453.31;5072497;28;20027;-66
2022/06/20 04:45:19;;;;;;;12.43;6.60;;;;;;;18.97;60.38;95465.66;5072891;28;20499;-66
2022/06/20 04:48:04;;;;;;;12.77;6.72;;;;;;;19.00;59.88;95463.44;5072302;28;20028;-66
2022/06/20 04:50:33;;;;;;;12.27;6.63;;;;;;;18.99;59.74;95467.13;5072433;28;20390;-66
2022/06/20 04:53:05;;;;;;;15.50;6.60;;;;;;;18.98;60.17;95468.16;5072108;28;20028;-65
2022/06/20 04:55:32;;;;;;;12.18;6.70;;;;;;;19.00;59.26;95463.44;5072295;28;20032;-65
2022/06/20 04:58:01;;;;;;;10.73;6.32;;;;;;;19.07;59.17;95463.47;5071803;28;20090;-66
2022/06/20 05:00:37;;;;;;;9.38;6.22;;;;;;;19.13;58.77;95472.50;5054136;28;20052;-66
2022/06/20 05:03:06;;;;;;;13.40;6.60;;;;;;;19.16;58.65;95466.75;5072227;28;20104;-65
2022/06/20 05:05:40;;;;;;;11.75;6.50;;;;;;;19.25;58.91;95470.06;5072042;28;20017;-66
2022/06/20 05:08:11;;;;;;;12.02;6.68;;;;;;;19.28;59.26;95465.16;5072210;28;20506;-65
2022/06/20 05:10:42;;;;;;;11.35;7.03;;;;;;;19.35;59.40;95465.19;5072151;28;20063;-66
2022/06/20 05:13:19;;;;;;;11.05;6.65;;;;;;;19.44;58.03;95471.97;5072068;28;20031;-66
2022/06/20 05:15:50;;;;;;;12.82;6.28;;;;;;;19.56;57.71;95476.69;5071789;28;20567;-66
2022/06/20 05:18:32;;;;;;;9.43;6.50;;;;;;;19.68;57.85;95477.72;5071680;28;20017;-66
2022/06/20 05:21:05;;;;;;;14.35;6.85;;;;;;;19.81;57.17;95476.91;5070473;28;20107;-67
2022/06/20 05:23:41;;;;;;;14.02;6.50;;;;;;;19.90;56.74;95470.34;5071032;28;20120;-67
2022/06/20 05:26:13;;;;;;;19.52;7.18;;;;;;;19.96;56.62;95473.25;5060789;28;20121;-67
2022/06/20 05:28:40;;;;;;;15.77;6.55;;;;;;;20.02;56.16;95473.25;5071601;28;20032;-66
2022/06/20 05:31:07;;;;;;;10.13;6.25;;;;;;;20.16;56.39;95470.56;5069546;28;20032;-66
2022/06/20 05:33:42;;;;;;;10.18;6.82;;;;;;;20.28;56.94;95470.72;5070991;28;20037;-66
2022/06/20 05:36:26;;;;;;;10.20;6.30;;;;;;;20.33;56.65;95476.28;5071146;28;20024;-66
2022/06/20 05:38:56;;;;;;;12.05;6.40;;;;;;;20.43;56.35;95489.22;5070939;28;20024;-66
2022/06/20 05:41:22;;;;;;;16.80;6.32;;;;;;;20.51;56.63;95486.31;5053265;28;20395;-65
2022/06/20 05:43:47;;;;;;;14.20;6.22;;;;;;;20.68;56.23;95486.69;5071234;28;20058;-66
2022/06/20 05:46:25;;;;;;;16.10;6.53;;;;;;;20.78;56.34;95488.91;5071063;28;20029;-65
2022/06/20 05:48:59;;;;;;;12.40;5.82;;;;;;;20.91;55.05;95485.41;5070605;28;20116;-65
2022/06/20 05:51:25;;;;;;;20.98;6.53;;;;;;;21.04;55.36;95490.69;5070723;28;20123;-67
2022/06/20 05:53:59;;;;;;;16.65;6.10;;;;;;;21.13;53.90;95498.47;5067786;28;20040;-65
2022/06/20 05:56:49;;;;;;;15.93;6.38;;;;;;;21.28;52.08;95498.19;5070749;28;20020;-66
2022/06/20 05:59:27;;;;;;;13.10;6.03;;;;;;;21.45;52.06;95493.97;5069335;28;20048;-65
2022/06/20 06:01:59;;;;;;;17.75;6.32;;;;;;;21.65;52.94;95500.25;5067756;28;20074;-67
2022/06/20 06:04:39;;;;;;;14.88;5.50;;;;;;;21.73;54.18;95508.84;5065826;28;20024;-66
2022/06/20 06:07:17;;;;;;;12.07;5.68;;;;;;;21.82;52.96;95508.63;5062491;28;20024;-68
2022/06/20 06:09:55;;;;;;;12.50;5.82;;;;;;;21.90;51.16;95519.06;5070409;28;20032;-69
2022/06/20 06:12:45;;;;;;;12.13;5.82;;;;;;;22.09;50.61;95505.72;5068711;28;20092;-67
2022/06/20 06:15:31;;;;;;;17.35;6.10;;;;;;;22.17;50.96;95508.09;5068001;28;20040;-66
2022/06/20 06:18:00;;;;;;;11.50;6.10;;;;;;;22.22;51.83;95505.59;5070232;28;20384;-67
2022/06/20 06:20:30;;;;;;;12.73;6.35;;;;;;;22.37;50.73;95505.25;5068299;28;20033;-68
2022/06/20 06:23:02;;;;;;;10.27;5.70;;;;;;;22.49;50.70;95507.22;5070403;28;20031;-66
2022/06/20 06:25:35;;;;;;;13.63;5.38;;;;;;;22.64;49.48;95501.50;5069460;28;20028;-67
2022/06/20 06:28:17;;;;;;;11.50;6.13;;;;;;;22.89;49.26;95504.13;5070352;28;20093;-69
2022/06/20 06:31:02;;;;;;;11.23;6.57;;;;;;;23.20;48.29;95504.16;5069799;28;20028;-66
2022/06/20 06:33:37;;;;;;;14.45;5.90;;;;;;;23.50;47.60;95509.56;5070132;28;20106;-66
2022/06/20 06:36:17;;;;;;;9.82;5.82;;;;;;;23.78;46.99;95505.44;5070273;28;20609;-66
2022/06/20 06:39:04;;;;;;;14.77;6.60;;;;;;;24.17;45.63;95505.88;5069928;28;20043;-67
2022/06/20 06:41:33;;;;;;;11.88;5.13;;;;;;;24.66;45.65;95504.00;5069977;28;20029;-66
2022/06/20 06:44:04;;;;;;;13.48;5.93;;;;;;;25.10;43.92;95504.41;5070154;28;20095;-67
2022/06/20 06:46:43;;;;;;;10.70;5.72;;;;;;;25.37;43.39;95503.03;5052134;28;20399;-65
2022/06/20 06:49:34;;;;;;;10.68;6.15;;;;;;;25.68;41.93;95504.44;5070143;28;20395;-65
2022/06/20 06:51:59;;;;;;;10.23;5.40;;;;;;;25.84;41.67;95505.50;5064785;28;20029;-66
2022/06/20 06:54:47;;;;;;;16.15;5.47;;;;;;;26.14;40.62;95506.25;5064504;28;20028;-67
2022/06/20 06:57:18;;;;;;;15.23;5.47;;;;;;;26.40;40.51;95509.38;5064350;28;20048;-66
2022/06/20 07:00:22;;;;;;;9.32;5.43;;;;;;;26.54;40.74;95516.06;5069954;28;20043;-66
2022/06/20 07:03:05;;;;;;;10.98;4.85;;;;;;;26.97;40.08;95511.03;5068702;28;20074;-67
2022/06/20 07:05:36;;;;;;;8.32;5.05;;;;;;;27.05;39.79;95503.53;5065030;28;20465;-65
2022/06/20 07:08:23;;;;;;;13.23;5.43;;;;;;;27.19;39.56;95512.91;5069776;28;20108;-67
2022/06/20 07:11:01;;;;;;;10.82;5.07;;;;;;;27.50;38.93;95520.53;5069695;28;20025;-67
2022/06/20 07:13:35;;;;;;;11.85;5.13;;;;;;;27.20;37.90;95511.84;5067857;28;20046;-67
2022/06/20 07:16:03;;;;;;;14.30;5.05;;;;;;;27.49;37.42;95510.78;5065018;28;20067;-67
2022/06/20 07:18:42;;;;;;;12.88;4.75;;;;;;;27.73;37.54;95522.94;5069618;28;20679;-68
2022/06/20 07:21:11;;;;;;;13.32;4.72;;;;;;;27.98;36.66;95516.19;5060141;28;20107;-67
2022/06/20 07:23:36;;;;;;;18.17;5.45;;;;;;;28.29;36.43;95518.31;5069494;28;20380;-68
2022/06/20 07:26:02;;;;;;;16.17;5.22;;;;;;;28.51;35.57;95520.91;5069535;28;20028;-68
2022/06/20 07:28:42;;;;;;;15.07;5.15;;;;;;;28.94;32.61;95520.91;5069075;28;20036;-68
2022/06/20 07:31:38;;;;;;;15.00;4.95;;;;;;;29.08;32.61;95520.44;5068357;28;20486;-67
2022/06/20 07:34:28;;;;;;;18.23;5.43;;;;;;;29.23;34.00;95519.69;5068681;28;20041;-68
2022/06/20 07:37:00;;;;;;;8.32;4.47;;;;;;;29.70;33.81;95523.38;5069446;28;20418;-68
2022/06/20 07:39:35;;;;;;;11.88;4.40;;;;;;;30.05;32.47;95527.25;5069355;28;20056;-67
2022/06/20 07:42:08;;;;;;;15.23;5.03;;;;;;;30.13;31.93;95525.88;5069056;28;20024;-68
2022/06/20 07:44:40;;;;;;;10.52;4.65;;;;;;;30.15;31.58;95529.13;5068381;28;20028;-68
2022/06/20 07:47:19;;;;;;;20.33;4.57;;;;;;;30.27;31.96;95526.97;5069601;28;20032;-68
2022/06/20 07:49:52;;;;;;;13.93;4.32;;;;;;;30.41;31.55;95524.53;5066576;28;20142;-68
2022/06/20 07:52:30;;;;;;;10.32;4.60;;;;;;;30.54;32.16;95523.16;5062819;28;20016;-68
2022/06/20 07:54:59;;;;;;;11.00;4.43;;;;;;;30.62;31.15;95519.09;5067905;28;20490;-67
2022/06/20 07:57:39;;;;;;;13.05;4.65;;;;;;;30.93;31.01;95521.72;5068007;28;20021;-68
2022/06/20 08:00:21;;;;;;;11.63;4.63;;;;;;;31.00;31.05;95510.56;5067416;28;20028;-67
2022/06/20 08:02:49;;;;;;;10.15;4.50;;;;;;;31.16;31.28;95514.03;5067703;28;20059;-67
2022/06/20 08:05:21;;;;;;;8.25;4.97;;;;;;;31.16;30.30;95512.16;5067617;28;20025;-68
2022/06/20 08:07:56;;;;;;;8.57;4.15;;;;;;;31.45;30.45;95510.69;5067986;28;20021;-67
2022/06/20 08:10:41;;;;;;;10.18;4.05;;;;;;;31.46;29.96;95503.31;5065586;28;20031;-68
2022/06/20 08:13:21;;;;;;;9.77;4.53;;;;;;;31.21;29.94;95502.38;5067736;28;20028;-67
2022/06/20 08:16:10;;;;;;;10.50;3.88;;;;;;;31.10;29.84;95502.41;5061397;28;20170;-68
2022/06/20 08:18:36;;;;;;;11.10;4.13;;;;;;;31.38;29.57;95508.28;5072295;28;20538;-67
2022/06/20 08:21:14;;;;;;;9.07;3.90;;;;;;;31.60;29.20;95504.34;5072656;28;20025;-67
2022/06/20 08:23:50;;;;;;;8.70;3.90;;;;;;;31.69;29.09;95504.56;5072548;28;20539;-66
2022/06/20 08:26:23;;;;;;;7.10;3.88;;;;;;;31.42;31.05;95503.09;5071693;28;20033;-67
2022/06/20 08:28:55;;;;;;;7.60;4.07;;;;;;;31.42;30.28;95508.53;5069328;28;20081;-68
2022/06/20 08:31:41;;;;;;;10.80;3.65;;;;;;;31.79;29.60;95507.22;5070273;28;20024;-67
2022/06/20 08:34:16;;;;;;;10.02;4.35;;;;;;;31.80;29.57;95502.63;5070582;28;20064;-68
2022/06/20 08:37:06;;;;;;;8.30;3.58;;;;;;;32.00;29.62;95502.47;5069617;28;20029;-66
2022/06/20 08:39:44;;;;;;;7.85;3.78;;;;;;;32.17;28.15;95505.88;5070898;28;20020;-67
2022/06/20 08:42:37;;;;;;;9.77;4.03;;;;;;;32.20;29.13;95502.59;5053177;28;20048;-68
2022/06/20 08:45:17;;;;;;;9.13;3.50;;;;;;;32.29;27.61;95509.06;5070449;28;20020;-67
2022/06/20 08:48:00;;;;;;;7.22;3.72;;;;;;;32.62;27.22;95511.22;5070739;28;20024;-67
2022/06/20 08:50:56;;;;;;;14.68;3.63;;;;;;;32.37;27.93;95502.19;5071026;28;20480;-67
2022/06/20 08:53:49;;;;;;;12.95;3.95;;;;;;;32.40;27.58;95509.81;5070472;28;20041;-67
2022/06/20 08:56:36;;;;;;;11.20;3.40;;;;;;;32.20;28.33;95513.47;5069909;28;20031;-68
2022/06/20 08:59:09;;;;;;;7.03;3.30;;;;;;;32.69;28.45;95508.97;5063381;28;20028;-67
2022/06/20 09:02:01;;;;;;;11.88;3.75;;;;;;;32.75;28.06;95510.53;5071887;28;20017;-69
2022/06/20 09:05:04;;;;;;;9.10;3.58;;;;;;;33.05;26.32;95508.63;5072280;28;20514;-68
2022/06/20 09:07:48;;;;;;;8.57;3.47;;;;;;;32.63;27.32;95508.19;5071639;28;20035;-69
2022/06/20 09:10:56;;;;;;;16.27;3.87;;;;;;;32.67;27.09;95505.72;5071123;28;20021;-67
2022/06/20 09:13:43;;;;;;;7.85;3.35;;;;;;;32.63;28.62;95507.41;5071808;28;20047;-68
2022/06/20 09:16:08;;;;;;;8.57;3.22;;;;;;;33.32;26.64;95503.63;5071783;28;20044;-69
2022/06/20 09:19:10;;;;;;;12.60;3.23;;;;;;;33.46;26.19;95512.75;5071453;28;20086;-68
2022/06/20 09:21:47;;;;;;;12.90;3.47;;;;;;;33.74;25.34;95507.44;5071564;28;20358;-68
2022/06/20 09:24:21;;;;;;;9.35;3.55;;;;;;;34.04;25.28;95504.59;5070883;28;20036;-69
2022/06/20 09:26:58;;;;;;;9.35;3.03;;;;;;;33.76;25.12;95507.97;5071623;28;20059;-68
2022/06/20 09:30:02;;;;;;;6.72;2.97;;;;;;;33.80;25.69;95502.72;5071467;28;20035;-69
2022/06/20 09:32:54;;;;;;;7.63;3.55;;;;;;;33.91;26.26;95493.28;5029748;28;20051;-68
2022/06/20 09:36:08;;;;;;;7.70;3.33;;;;;;;33.61;26.23;95500.03;5066936;28;20032;-69
2022/06/20 09:39:10;;;;;;;7.95;3.25;;;;;;;33.78;26.14;95494.03;5005021;28;20040;-69
2022/06/20 09:41:57;;;;;;;10.13;3.53;;;;;;;33.89;26.53;95500.16;5057531;28;20090;-71
2022/06/20 09:44:44;;;;;;;13.77;3.28;;;;;;;34.49;24.51;95496.75;5069716;28;20047;-68
2022/06/20 09:47:34;;;;;;;8.80;3.33;;;;;;;34.09;25.48;95493.56;5058814;28;20078;-69
2022/06/20 09:50:23;;;;;;;7.60;3.05;;;;;;;34.33;25.24;95493.44;5069928;28;20025;-68
2022/06/20 09:53:16;;;;;;;6.35;3.00;;;;;;;34.25;24.72;95497.69;5070722;28;20047;-68
2022/06/20 09:55:50;;;;;;;8.00;2.72;;;;;;;34.29;25.33;95495.16;5062369;28;20085;-69
2022/06/20 09:58:16;;;;;;;6.00;3.13;;;;;;;34.94;24.51;95490.72;5070069;28;20160;-68
2022/06/20 10:01:00;;;;;;;11.80;2.87;;;;;;;34.90;24.23;95489.69;5070384;28;20519;-68
2022/06/20 10:03:41;;;;;;;7.47;2.85;;;;;;;35.23;22.70;95489.63;5069592;28;20029;-68
2022/06/20 10:06:29;;;;;;;8.30;2.80;;;;;;;34.98;23.80;95486.28;5069127;28;20039;-68
2022/06/20 10:09:42;;;;;;;11.35;3.63;;;;;;;34.97;23.50;95487.38;5069151;28;20036;-68
2022/06/20 10:12:45;;;;;;;5.53;2.67;;;;;;;34.83;24.38;95479.19;5057025;28;20483;-69
2022/06/20 10:15:16;;;;;;;9.20;2.53;;;;;;;35.54;23.56;95483.50;5070277;28;20106;-69
2022/06/20 10:18:00;;;;;;;10.13;3.10;;;;;;;35.52;22.89;95479.47;5070597;28;20035;-68
2022/06/20 10:20:37;;;;;;;10.38;3.00;;;;;;;35.57;22.65;95476.63;5070277;28;20035;-68
2022/06/20 10:23:17;;;;;;;7.65;2.50;;;;;;;35.59;23.61;95474.38;5070501;28;20043;-67
2022/06/20 10:26:00;;;;;;;7.60;2.50;;;;;;;35.60;22.13;95476.00;5070092;28;20113;-65
2022/06/20 10:28:46;;;;;;;8.95;2.90;;;;;;;35.81;22.88;95470.88;5070467;28;20050;-68
2022/06/20 10:31:14;;;;;;;5.97;3.05;;;;;;;35.61;23.01;95461.19;5070210;28;20040;-68
2022/06/20 10:34:02;;;;;;;7.88;2.60;;;;;;;35.14;24.20;95456.69;5070206;28;20078;-66
2022/06/20 10:36:49;;;;;;;10.48;2.30;;;;;;;35.66;23.12;95461.06;5065463;28;20434;-68
2022/06/20 10:39:40;;;;;;;5.80;2.97;;;;;;;35.52;24.09;95457.56;5067090;28;20047;-68
2022/06/20 10:42:39;;;;;;;7.68;2.75;;;;;;;35.54;23.39;95458.88;5064839;28;20500;-66
2022/06/20 10:45:30;;;;;;;12.77;2.72;;;;;;;35.12;23.66;95456.19;5064425;28;20499;-68
2022/06/20 10:48:14;;;;;;;10.35;2.78;;;;;;;35.69;23.64;95452.22;5065248;28;20021;-67
2022/06/20 10:50:53;;;;;;;12.23;3.10;;;;;;;35.88;23.49;95447.72;5068490;28;20562;-67
2022/06/20 10:53:46;;;;;;;11.20;2.88;;;;;;;36.05;21.99;95441.56;5068419;28;20621;-67
2022/06/20 10:56:18;;;;;;;5.70;3.03;;;;;;;35.94;22.19;95446.47;5068639;28;20032;-68
2022/06/20 10:59:02;;;;;;;6.63;2.83;;;;;;;36.17;22.63;95444.56;5069993;28;20032;-67
2022/06/20 11:01:46;;;;;;;7.32;2.72;;;;;;;36.54;22.42;95437.00;5066512;28;20501;-68
2022/06/20 11:04:17;;;;;;;7.90;2.92;;;;;;;36.34;22.63;95443.00;5069960;28;20047;-67
2022/06/20 11:07:06;;;;;;;9.20;3.65;;;;;;;36.16;23.53;95448.41;5069791;28;20708;-68
2022/06/20 11:09:40;;;;;;;6.55;2.63;;;;;;;36.11;23.20;95435.66;5069660;28;20020;-68
2022/06/20 11:12:18;;;;;;;;;;;;;;;35.67;23.36;95437.25;5070605;28;20021;-68
2022/06/20 11:15:08;;;;;;;9.45;2.45;;;;;;;36.07;22.79;95431.09;5069753;28;19969;-68
2022/06/20 11:17:54;;;;;;;12.38;2.60;;;;;;;36.51;22.43;95439.56;5062415;28;20499;-68
2022/06/20 11:20:48;;;;;;;3.75;2.42;;;;;;;36.30;22.33;95426.41;5067596;28;20036;-68
2022/06/20 11:23:26;;;;;;;7.85;2.63;;;;;;;36.49;23.00;95428.13;5052174;28;20041;-68
2022/06/20 11:25:52;;;;;;;6.07;2.58;;;;;;;36.25;22.76;95427.34;5051991;28;20427;-69
2022/06/20 11:28:36;;;;;;;13.47;2.93;;;;;;;36.46;22.08;95423.25;5066648;28;20070;-69
2022/06/20 11:31:13;;;;;;;6.18;2.40;;;;;;;35.97;22.08;95427.50;5069758;28;20060;-68
2022/06/20 11:34:04;;;;;;;9.88;2.80;;;;;;;36.04;22.66;95423.53;5069554;28;20031;-68
2022/06/20 11:36:54;;;;;;;12.48;2.70;;;;;;;36.55;22.10;95427.66;5056619;28;20510;-69
2022/06/20 11:39:37;;;;;;;5.63;2.20;;;;;;;36.04;22.96;95426.25;5051344;28;20391;-68
2022/06/20 11:42:08;;;;;;;5.28;2.40;;;;;;;36.45;22.63;95416.16;5069666;28;20025;-69
2022/06/20 11:44:39;;;;;;;9.52;2.55;;;;;;;36.49;22.32;95414.41;5069417;28;20545;-69
2022/06/20 11:47:16;;;;;;;7.22;2.50;;;;;;;36.15;23.15;95415.84;5069582;28;20078;-68
2022/06/20 11:50:00;;;;;;;4.35;2.45;;;;;;;36.14;22.16;95412.28;5073691;28;20484;-67
2022/06/20 11:52:31;;;;;;;4.05;2.20;;;;;;;36.48;22.03;95410.84;5073545;28;20074;-67
2022/06/20 11:55:15;;;;;;;4.90;2.47;;;;;;;36.97;21.94;95408.13;5072974;28;20035;-68
2022/06/20 11:57:51;;;;;;;6.40;2.40;;;;;;;36.77;22.15;95404.03;5073661;28;20074;-68
2022/06/20 12:00:25;;;;;;;10.30;2.47;;;;;;;37.26;20.43;95405.97;5073357;28;20028;-69
2022/06/20 12:02:59;;;;;;;;;;;;;;;36.59;22.22;95396.88;5073495;28;20036;-68
2022/06/20 12:05:44;;;;;;;6.18;2.40;;;;;;;36.38;22.56;95394.69;5073209;28;19912;-68
2022/06/20 12:08:41;;;;;;;7.25;2.53;;;;;;;36.75;21.11;95397.28;5073441;28;20031;-68
2022/06/20 12:11:28;;;;;;;5.22;2.40;;;;;;;36.76;20.70;95394.19;5027789;28;20037;-69
2022/06/20 12:14:05;;;;;;;5.13;2.45;;;;;;;36.51;22.27;95385.53;5060138;28;20024;-68
2022/06/20 12:16:45;;;;;;;8.32;2.38;;;;;;;36.64;22.03;95377.56;5072631;28;20771;-68
2022/06/20 12:25:52;;;;;;;3.05;2.15;;;;;;;37.33;20.53;95376.09;5072924;28;20071;-68
2022/06/20 12:28:22;;;;;;;10.40;2.70;;;;;;;37.16;20.37;95381.56;5050944;28;20483;-67